sensor_id;sensor_type;location;lat;lon;timestamp;P1;durP1;ratioP1;P2;durP2;ratioP2
10461;SDS011;5278;42.656;23.374;2022-07-22T00:00:09;8.03;;;4.60;;
10461;SDS011;5278;42.656;23.374;2022-07-22T00:02:37;6.17;;;4.70;;
10461;SDS011;5278;42.656;23.374;2022-07-22T00:05:06;7.80;;;5.03;;
10461;SDS011;5278;42.656;23.374;2022-07-22T00:07:35;8.07;;;3.80;;
10461;SDS011;5278;42.656;23.374;2022-07-22T00:10:02;5.83;;;4.07;;
10461;SDS011;5278;42.656;23.374;2022-07-22T00:12:31;5.00;;;4.00;;
10461;SDS011;5278;42.656;23.374;2022-07-22T00:14:57;7.00;;;4.10;;
10461;SDS011;5278;42.656;23.374;2022-07-22T00:17:27;6.70;;;4.30;;
10461;SDS011;5278;42.656;23.374;2022-07-22T00:19:54;5.80;;;4.17;;
10461;SDS011;5278;42.656;23.374;2022-07-22T00:22:21;4.30;;;3.90;;
10461;SDS011;5278;42.656;23.374;2022-07-22T00:24:48;4.30;;;3.90;;
10461;SDS011;5278;42.656;23.374;2022-07-22T00:27:14;7.73;;;4.30;;
10461;SDS011;5278;42.656;23.374;2022-07-22T00:29:42;5.60;;;3.50;;
10461;SDS011;5278;42.656;23.374;2022-07-22T00:32:08;4.77;;;4.00;;
10461;SDS011;5278;42.656;23.374;2022-07-22T00:34:37;5.27;;;3.97;;
10461;SDS011;5278;42.656;23.374;2022-07-22T00:37:04;5.93;;;3.57;;
10461;SDS011;5278;42.656;23.374;2022-07-22T00:39:31;8.37;;;4.20;;
10461;SDS011;5278;42.656;23.374;2022-07-22T00:41:58;6.30;;;3.70;;
10461;SDS011;5278;42.656;23.374;2022-07-22T00:44:26;5.17;;;3.90;;
10461;SDS011;5278;42.656;23.374;2022-07-22T00:46:52;4.73;;;3.90;;
10461;SDS011;5278;42.656;23.374;2022-07-22T00:49:19;5.60;;;4.17;;
10461;SDS011;5278;42.656;23.374;2022-07-22T00:51:48;6.67;;;4.30;;
10461;SDS011;5278;42.656;23.374;2022-07-22T00:54:15;8.57;;;4.33;;
10461;SDS011;5278;42.656;23.374;2022-07-22T00:56:42;5.50;;;3.43;;
10461;SDS011;5278;42.656;23.374;2022-07-22T00:59:10;4.27;;;3.70;;
10461;SDS011;5278;42.656;23.374;2022-07-22T01:01:37;4.70;;;3.80;;
10461;SDS011;5278;42.656;23.374;2022-07-22T01:04:04;4.80;;;4.33;;
10461;SDS011;5278;42.656;23.374;2022-07-22T01:06:31;7.20;;;4.03;;
10461;SDS011;5278;42.656;23.374;2022-07-22T01:09:00;4.90;;;3.80;;
10461;SDS011;5278;42.656;23.374;2022-07-22T01:11:26;6.87;;;3.83;;
10461;SDS011;5278;42.656;23.374;2022-07-22T01:13:54;4.00;;;3.60;;
10461;SDS011;5278;42.656;23.374;2022-07-22T01:16:22;6.27;;;4.10;;
10461;SDS011;5278;42.656;23.374;2022-07-22T01:18:50;5.50;;;4.10;;
10461;SDS011;5278;42.656;23.374;2022-07-22T01:21:18;5.80;;;4.30;;
10461;SDS011;5278;42.656;23.374;2022-07-22T01:23:45;5.63;;;4.37;;
10461;SDS011;5278;42.656;23.374;2022-07-22T01:26:13;5.07;;;4.10;;
10461;SDS011;5278;42.656;23.374;2022-07-22T01:28:40;5.13;;;3.63;;
10461;SDS011;5278;42.656;23.374;2022-07-22T01:31:07;4.57;;;4.00;;
10461;SDS011;5278;42.656;23.374;2022-07-22T01:33:35;5.40;;;4.90;;
10461;SDS011;5278;42.656;23.374;2022-07-22T01:36:02;5.57;;;4.40;;
10461;SDS011;5278;42.656;23.374;2022-07-22T01:38:32;8.03;;;4.30;;
10461;SDS011;5278;42.656;23.374;2022-07-22T01:40:59;4.87;;;3.80;;
10461;SDS011;5278;42.656;23.374;2022-07-22T01:43:26;7.00;;;3.87;;
10461;SDS011;5278;42.656;23.374;2022-07-22T01:45:53;6.00;;;4.43;;
10461;SDS011;5278;42.656;23.374;2022-07-22T01:48:21;7.10;;;4.43;;
10461;SDS011;5278;42.656;23.374;2022-07-22T01:50:48;4.70;;;4.20;;
10461;SDS011;5278;42.656;23.374;2022-07-22T01:53:16;5.23;;;4.73;;
10461;SDS011;5278;42.656;23.374;2022-07-22T01:55:44;5.40;;;4.00;;
10461;SDS011;5278;42.656;23.374;2022-07-22T01:58:11;6.03;;;4.47;;
10461;SDS011;5278;42.656;23.374;2022-07-22T02:00:38;4.33;;;3.90;;
10461;SDS011;5278;42.656;23.374;2022-07-22T02:03:05;4.67;;;3.70;;
10461;SDS011;5278;42.656;23.374;2022-07-22T02:05:32;8.57;;;4.60;;
10461;SDS011;5278;42.656;23.374;2022-07-22T02:08:00;5.07;;;4.57;;
10461;SDS011;5278;42.656;23.374;2022-07-22T02:10:28;6.13;;;4.50;;
10461;SDS011;5278;42.656;23.374;2022-07-22T02:12:56;4.93;;;4.03;;
10461;SDS011;5278;42.656;23.374;2022-07-22T02:15:24;4.50;;;4.10;;
10461;SDS011;5278;42.656;23.374;2022-07-22T02:17:51;9.90;;;4.50;;
10461;SDS011;5278;42.656;23.374;2022-07-22T02:20:18;5.03;;;4.50;;
10461;SDS011;5278;42.656;23.374;2022-07-22T02:22:45;8.80;;;4.70;;
10461;SDS011;5278;42.656;23.374;2022-07-22T02:25:13;4.77;;;4.27;;
10461;SDS011;5278;42.656;23.374;2022-07-22T02:27:40;5.73;;;4.13;;
10461;SDS011;5278;42.656;23.374;2022-07-22T02:30:10;6.73;;;4.63;;
10461;SDS011;5278;42.656;23.374;2022-07-22T02:32:37;7.03;;;4.77;;
10461;SDS011;5278;42.656;23.374;2022-07-22T02:35:05;5.20;;;4.63;;
10461;SDS011;5278;42.656;23.374;2022-07-22T02:37:32;5.90;;;4.10;;
10461;SDS011;5278;42.656;23.374;2022-07-22T02:39:59;5.77;;;4.57;;
10461;SDS011;5278;42.656;23.374;2022-07-22T02:42:26;5.60;;;4.77;;
10461;SDS011;5278;42.656;23.374;2022-07-22T02:44:53;6.77;;;4.60;;
10461;SDS011;5278;42.656;23.374;2022-07-22T02:47:21;5.73;;;4.73;;
10461;SDS011;5278;42.656;23.374;2022-07-22T02:49:48;5.10;;;4.50;;
10461;SDS011;5278;42.656;23.374;2022-07-22T02:52:15;5.63;;;4.20;;
10461;SDS011;5278;42.656;23.374;2022-07-22T02:54:42;5.83;;;4.10;;
10461;SDS011;5278;42.656;23.374;2022-07-22T02:57:09;8.10;;;4.53;;
10461;SDS011;5278;42.656;23.374;2022-07-22T02:59:36;7.00;;;4.27;;
10461;SDS011;5278;42.656;23.374;2022-07-22T03:02:03;7.90;;;4.90;;
10461;SDS011;5278;42.656;23.374;2022-07-22T03:04:31;8.53;;;5.27;;
10461;SDS011;5278;42.656;23.374;2022-07-22T03:06:58;6.30;;;4.57;;
10461;SDS011;5278;42.656;23.374;2022-07-22T03:09:25;6.57;;;4.23;;
10461;SDS011;5278;42.656;23.374;2022-07-22T03:11:52;6.27;;;4.90;;
10461;SDS011;5278;42.656;23.374;2022-07-22T03:14:19;10.90;;;4.93;;
10461;SDS011;5278;42.656;23.374;2022-07-22T03:16:47;8.07;;;4.93;;
10461;SDS011;5278;42.656;23.374;2022-07-22T03:19:14;6.17;;;4.43;;
10461;SDS011;5278;42.656;23.374;2022-07-22T03:21:42;8.53;;;5.50;;
10461;SDS011;5278;42.656;23.374;2022-07-22T03:24:10;6.83;;;4.50;;
10461;SDS011;5278;42.656;23.374;2022-07-22T03:26:37;8.40;;;5.03;;
10461;SDS011;5278;42.656;23.374;2022-07-22T03:29:03;9.07;;;5.07;;
10461;SDS011;5278;42.656;23.374;2022-07-22T03:31:30;5.93;;;4.83;;
10461;SDS011;5278;42.656;23.374;2022-07-22T03:33:57;7.37;;;4.93;;
10461;SDS011;5278;42.656;23.374;2022-07-22T03:36:26;7.03;;;4.97;;
10461;SDS011;5278;42.656;23.374;2022-07-22T03:38:54;7.73;;;4.97;;
10461;SDS011;5278;42.656;23.374;2022-07-22T03:41:21;7.83;;;5.27;;
10461;SDS011;5278;42.656;23.374;2022-07-22T03:43:48;8.67;;;4.97;;
10461;SDS011;5278;42.656;23.374;2022-07-22T03:46:15;9.53;;;5.30;;
10461;SDS011;5278;42.656;23.374;2022-07-22T03:48:42;9.03;;;4.97;;
10461;SDS011;5278;42.656;23.374;2022-07-22T03:51:09;8.40;;;5.33;;
10461;SDS011;5278;42.656;23.374;2022-07-22T03:53:36;6.00;;;4.90;;
10461;SDS011;5278;42.656;23.374;2022-07-22T03:56:05;6.73;;;5.37;;
10461;SDS011;5278;42.656;23.374;2022-07-22T03:58:33;6.40;;;5.10;;
10461;SDS011;5278;42.656;23.374;2022-07-22T04:01:00;7.87;;;5.73;;
10461;SDS011;5278;42.656;23.374;2022-07-22T04:03:26;5.90;;;5.30;;
10461;SDS011;5278;42.656;23.374;2022-07-22T04:05:53;6.00;;;5.10;;
10461;SDS011;5278;42.656;23.374;2022-07-22T04:08:20;6.90;;;5.50;;
10461;SDS011;5278;42.656;23.374;2022-07-22T04:10:47;5.70;;;5.10;;
10461;SDS011;5278;42.656;23.374;2022-07-22T04:13:15;7.77;;;5.67;;
10461;SDS011;5278;42.656;23.374;2022-07-22T04:15:42;8.80;;;6.47;;
10461;SDS011;5278;42.656;23.374;2022-07-22T04:18:09;7.70;;;5.83;;
10461;SDS011;5278;42.656;23.374;2022-07-22T04:20:36;8.17;;;5.47;;
10461;SDS011;5278;42.656;23.374;2022-07-22T04:23:03;10.87;;;6.50;;
10461;SDS011;5278;42.656;23.374;2022-07-22T04:25:29;7.83;;;6.30;;
10461;SDS011;5278;42.656;23.374;2022-07-22T04:27:56;10.07;;;6.23;;
10461;SDS011;5278;42.656;23.374;2022-07-22T04:30:25;8.77;;;6.10;;
10461;SDS011;5278;42.656;23.374;2022-07-22T04:32:52;11.23;;;7.10;;
10461;SDS011;5278;42.656;23.374;2022-07-22T04:35:19;9.17;;;6.77;;
10461;SDS011;5278;42.656;23.374;2022-07-22T04:37:45;8.07;;;6.40;;
10461;SDS011;5278;42.656;23.374;2022-07-22T04:40:12;8.03;;;6.40;;
10461;SDS011;5278;42.656;23.374;2022-07-22T04:42:39;10.93;;;6.93;;
10461;SDS011;5278;42.656;23.374;2022-07-22T04:45:06;10.03;;;7.27;;
10461;SDS011;5278;42.656;23.374;2022-07-22T04:47:35;12.10;;;6.97;;
10461;SDS011;5278;42.656;23.374;2022-07-22T04:50:02;10.23;;;6.10;;
10461;SDS011;5278;42.656;23.374;2022-07-22T04:52:29;6.20;;;5.37;;
10461;SDS011;5278;42.656;23.374;2022-07-22T04:54:56;6.80;;;5.43;;
10461;SDS011;5278;42.656;23.374;2022-07-22T04:57:24;6.93;;;5.40;;
10461;SDS011;5278;42.656;23.374;2022-07-22T04:59:52;8.47;;;6.00;;
10461;SDS011;5278;42.656;23.374;2022-07-22T05:02:19;8.67;;;6.27;;
10461;SDS011;5278;42.656;23.374;2022-07-22T05:04:47;9.97;;;6.60;;
10461;SDS011;5278;42.656;23.374;2022-07-22T05:07:15;9.90;;;7.27;;
10461;SDS011;5278;42.656;23.374;2022-07-22T05:09:41;9.63;;;6.47;;
10461;SDS011;5278;42.656;23.374;2022-07-22T05:12:08;7.97;;;7.17;;
10461;SDS011;5278;42.656;23.374;2022-07-22T05:14:35;7.70;;;6.17;;
10461;SDS011;5278;42.656;23.374;2022-07-22T05:17:02;9.80;;;6.67;;
10461;SDS011;5278;42.656;23.374;2022-07-22T05:19:29;10.47;;;6.63;;
10461;SDS011;5278;42.656;23.374;2022-07-22T05:21:59;6.73;;;6.03;;
10461;SDS011;5278;42.656;23.374;2022-07-22T05:24:26;11.10;;;7.90;;
10461;SDS011;5278;42.656;23.374;2022-07-22T05:26:53;8.37;;;6.57;;
10461;SDS011;5278;42.656;23.374;2022-07-22T05:29:20;8.37;;;6.13;;
10461;SDS011;5278;42.656;23.374;2022-07-22T05:31:47;6.83;;;5.93;;
10461;SDS011;5278;42.656;23.374;2022-07-22T05:34:14;7.40;;;6.60;;
10461;SDS011;5278;42.656;23.374;2022-07-22T05:36:43;9.47;;;7.40;;
10461;SDS011;5278;42.656;23.374;2022-07-22T05:39:11;9.83;;;6.60;;
10461;SDS011;5278;42.656;23.374;2022-07-22T05:41:38;9.07;;;6.57;;
10461;SDS011;5278;42.656;23.374;2022-07-22T05:44:05;10.13;;;8.27;;
10461;SDS011;5278;42.656;23.374;2022-07-22T05:46:32;8.53;;;6.53;;
10461;SDS011;5278;42.656;23.374;2022-07-22T05:48:59;6.77;;;6.03;;
10461;SDS011;5278;42.656;23.374;2022-07-22T05:51:27;6.47;;;5.80;;
10461;SDS011;5278;42.656;23.374;2022-07-22T05:53:54;7.43;;;5.87;;
10461;SDS011;5278;42.656;23.374;2022-07-22T05:56:24;7.47;;;6.27;;
10461;SDS011;5278;42.656;23.374;2022-07-22T05:58:51;8.68;;;6.07;;
10461;SDS011;5278;42.656;23.374;2022-07-22T06:01:18;7.75;;;7.00;;
10461;SDS011;5278;42.656;23.374;2022-07-22T06:03:45;11.00;;;7.25;;
10461;SDS011;5278;42.656;23.374;2022-07-22T06:06:12;8.35;;;6.25;;
10461;SDS011;5278;42.656;23.374;2022-07-22T06:08:38;8.55;;;6.20;;
10461;SDS011;5278;42.656;23.374;2022-07-22T06:11:05;7.55;;;5.60;;
10461;SDS011;5278;42.656;23.374;2022-07-22T06:13:35;9.18;;;6.13;;
10461;SDS011;5278;42.656;23.374;2022-07-22T06:16:03;10.38;;;5.65;;
10461;SDS011;5278;42.656;23.374;2022-07-22T06:18:31;7.93;;;5.75;;
10461;SDS011;5278;42.656;23.374;2022-07-22T06:20:58;10.10;;;5.38;;
10461;SDS011;5278;42.656;23.374;2022-07-22T06:23:25;8.38;;;5.78;;
10461;SDS011;5278;42.656;23.374;2022-07-22T06:25:52;10.68;;;7.00;;
10461;SDS011;5278;42.656;23.374;2022-07-22T06:28:19;7.95;;;5.72;;
10461;SDS011;5278;42.656;23.374;2022-07-22T06:30:47;7.20;;;5.75;;
10461;SDS011;5278;42.656;23.374;2022-07-22T06:33:13;8.82;;;5.90;;
10461;SDS011;5278;42.656;23.374;2022-07-22T06:35:40;9.80;;;6.32;;
10461;SDS011;5278;42.656;23.374;2022-07-22T06:38:08;12.52;;;6.68;;
10461;SDS011;5278;42.656;23.374;2022-07-22T06:40:35;9.95;;;6.25;;
10461;SDS011;5278;42.656;23.374;2022-07-22T06:43:02;11.40;;;7.05;;
10461;SDS011;5278;42.656;23.374;2022-07-22T06:45:29;9.15;;;7.35;;
10461;SDS011;5278;42.656;23.374;2022-07-22T06:47:58;8.30;;;6.22;;
10461;SDS011;5278;42.656;23.374;2022-07-22T06:50:26;12.02;;;6.65;;
10461;SDS011;5278;42.656;23.374;2022-07-22T06:52:54;10.50;;;7.63;;
10461;SDS011;5278;42.656;23.374;2022-07-22T06:55:21;11.15;;;7.35;;
10461;SDS011;5278;42.656;23.374;2022-07-22T06:57:48;9.15;;;6.50;;
10461;SDS011;5278;42.656;23.374;2022-07-22T07:00:15;9.55;;;6.78;;
10461;SDS011;5278;42.656;23.374;2022-07-22T07:02:43;12.88;;;6.50;;
10461;SDS011;5278;42.656;23.374;2022-07-22T07:05:12;17.23;;;8.07;;
10461;SDS011;5278;42.656;23.374;2022-07-22T07:07:39;10.27;;;6.15;;
10461;SDS011;5278;42.656;23.374;2022-07-22T07:10:06;9.63;;;6.30;;
10461;SDS011;5278;42.656;23.374;2022-07-22T07:12:34;10.00;;;6.07;;
10461;SDS011;5278;42.656;23.374;2022-07-22T07:15:01;9.70;;;5.85;;
10461;SDS011;5278;42.656;23.374;2022-07-22T07:17:28;8.88;;;5.32;;
10461;SDS011;5278;42.656;23.374;2022-07-22T07:19:55;7.65;;;5.38;;
10461;SDS011;5278;42.656;23.374;2022-07-22T07:22:23;7.03;;;4.88;;
10461;SDS011;5278;42.656;23.374;2022-07-22T07:24:50;8.68;;;5.55;;
10461;SDS011;5278;42.656;23.374;2022-07-22T07:27:17;5.22;;;4.63;;
10461;SDS011;5278;42.656;23.374;2022-07-22T07:29:43;5.43;;;4.90;;
10461;SDS011;5278;42.656;23.374;2022-07-22T07:32:11;7.95;;;4.85;;
10461;SDS011;5278;42.656;23.374;2022-07-22T07:34:37;8.32;;;5.28;;
10461;SDS011;5278;42.656;23.374;2022-07-22T07:37:04;8.18;;;4.85;;
10461;SDS011;5278;42.656;23.374;2022-07-22T07:39:33;7.45;;;4.95;;
10461;SDS011;5278;42.656;23.374;2022-07-22T07:42:00;7.68;;;5.07;;
10461;SDS011;5278;42.656;23.374;2022-07-22T07:44:26;5.53;;;5.00;;
10461;SDS011;5278;42.656;23.374;2022-07-22T07:46:53;6.50;;;4.93;;
10461;SDS011;5278;42.656;23.374;2022-07-22T07:49:21;6.18;;;5.45;;
10461;SDS011;5278;42.656;23.374;2022-07-22T07:51:48;7.43;;;5.35;;
10461;SDS011;5278;42.656;23.374;2022-07-22T07:54:15;6.07;;;5.22;;
10461;SDS011;5278;42.656;23.374;2022-07-22T07:56:43;7.60;;;4.90;;
10461;SDS011;5278;42.656;23.374;2022-07-22T07:59:10;6.90;;;4.53;;
10461;SDS011;5278;42.656;23.374;2022-07-22T08:01:37;8.82;;;4.25;;
10461;SDS011;5278;42.656;23.374;2022-07-22T08:04:04;4.80;;;4.32;;
10461;SDS011;5278;42.656;23.374;2022-07-22T08:06:31;5.70;;;4.15;;
10461;SDS011;5278;42.656;23.374;2022-07-22T08:08:58;6.75;;;4.60;;
10461;SDS011;5278;42.656;23.374;2022-07-22T08:11:25;8.50;;;4.68;;
10461;SDS011;5278;42.656;23.374;2022-07-22T08:13:53;4.70;;;4.28;;
10461;SDS011;5278;42.656;23.374;2022-07-22T08:16:20;7.13;;;4.57;;
10461;SDS011;5278;42.656;23.374;2022-07-22T08:18:47;5.82;;;5.15;;
10461;SDS011;5278;42.656;23.374;2022-07-22T08:21:14;6.03;;;4.05;;
10461;SDS011;5278;42.656;23.374;2022-07-22T08:23:42;6.90;;;5.10;;
10461;SDS011;5278;42.656;23.374;2022-07-22T08:26:09;8.55;;;4.53;;
10461;SDS011;5278;42.656;23.374;2022-07-22T08:28:36;6.25;;;4.20;;
10461;SDS011;5278;42.656;23.374;2022-07-22T08:31:04;7.07;;;4.00;;
10461;SDS011;5278;42.656;23.374;2022-07-22T08:33:31;5.18;;;4.70;;
10461;SDS011;5278;42.656;23.374;2022-07-22T08:35:58;6.38;;;4.82;;
10461;SDS011;5278;42.656;23.374;2022-07-22T08:38:27;5.03;;;4.47;;
10461;SDS011;5278;42.656;23.374;2022-07-22T08:40:55;5.80;;;4.38;;
10461;SDS011;5278;42.656;23.374;2022-07-22T08:43:22;8.60;;;4.70;;
10461;SDS011;5278;42.656;23.374;2022-07-22T08:45:49;49.13;;;11.35;;
10461;SDS011;5278;42.656;23.374;2022-07-22T08:48:17;5.82;;;4.30;;
10461;SDS011;5278;42.656;23.374;2022-07-22T08:50:44;7.13;;;4.55;;
10461;SDS011;5278;42.656;23.374;2022-07-22T08:53:11;7.35;;;4.50;;
10461;SDS011;5278;42.656;23.374;2022-07-22T08:55:42;5.43;;;4.10;;
10461;SDS011;5278;42.656;23.374;2022-07-22T08:58:09;8.00;;;4.85;;
10461;SDS011;5278;42.656;23.374;2022-07-22T09:00:37;7.65;;;4.85;;
10461;SDS011;5278;42.656;23.374;2022-07-22T09:03:17;6.05;;;4.75;;
10461;SDS011;5278;42.656;23.374;2022-07-22T09:05:47;4.60;;;4.30;;
10461;SDS011;5278;42.656;23.374;2022-07-22T09:08:14;4.47;;;3.90;;
10461;SDS011;5278;42.656;23.374;2022-07-22T09:10:41;4.38;;;3.97;;
10461;SDS011;5278;42.656;23.374;2022-07-22T09:13:08;8.10;;;4.72;;
10461;SDS011;5278;42.656;23.374;2022-07-22T09:15:45;8.70;;;5.05;;
10461;SDS011;5278;42.656;23.374;2022-07-22T09:18:13;6.70;;;4.90;;
10461;SDS011;5278;42.656;23.374;2022-07-22T09:20:42;6.15;;;4.40;;
10461;SDS011;5278;42.656;23.374;2022-07-22T09:23:10;6.15;;;3.97;;
10461;SDS011;5278;42.656;23.374;2022-07-22T09:25:38;5.25;;;4.57;;
10461;SDS011;5278;42.656;23.374;2022-07-22T09:28:10;5.93;;;4.43;;
10461;SDS011;5278;42.656;23.374;2022-07-22T09:30:46;5.43;;;4.53;;
10461;SDS011;5278;42.656;23.374;2022-07-22T09:33:15;7.72;;;5.22;;
10461;SDS011;5278;42.656;23.374;2022-07-22T09:35:44;7.68;;;4.50;;
10461;SDS011;5278;42.656;23.374;2022-07-22T09:38:12;7.22;;;4.22;;
10461;SDS011;5278;42.656;23.374;2022-07-22T09:40:42;5.10;;;4.70;;
10461;SDS011;5278;42.656;23.374;2022-07-22T09:43:12;5.05;;;4.55;;
10461;SDS011;5278;42.656;23.374;2022-07-22T09:45:44;4.95;;;3.92;;
10461;SDS011;5278;42.656;23.374;2022-07-22T09:48:15;8.80;;;4.72;;
10461;SDS011;5278;42.656;23.374;2022-07-22T09:50:45;8.43;;;3.88;;
10461;SDS011;5278;42.656;23.374;2022-07-22T09:53:14;10.00;;;5.03;;
10461;SDS011;5278;42.656;23.374;2022-07-22T09:55:42;5.22;;;3.83;;
10461;SDS011;5278;42.656;23.374;2022-07-22T09:58:10;4.63;;;4.25;;
10461;SDS011;5278;42.656;23.374;2022-07-22T10:00:38;7.57;;;4.90;;
10461;SDS011;5278;42.656;23.374;2022-07-22T10:03:06;4.80;;;4.18;;
10461;SDS011;5278;42.656;23.374;2022-07-22T10:05:35;4.68;;;4.28;;
10461;SDS011;5278;42.656;23.374;2022-07-22T10:08:06;8.50;;;7.70;;
10461;SDS011;5278;42.656;23.374;2022-07-22T10:10:34;5.45;;;4.32;;
10461;SDS011;5278;42.656;23.374;2022-07-22T10:13:02;5.47;;;4.97;;
10461;SDS011;5278;42.656;23.374;2022-07-22T10:15:32;5.03;;;4.13;;
10461;SDS011;5278;42.656;23.374;2022-07-22T10:18:03;5.50;;;3.75;;
10461;SDS011;5278;42.656;23.374;2022-07-22T10:20:34;4.53;;;4.13;;
10461;SDS011;5278;42.656;23.374;2022-07-22T10:23:02;5.93;;;4.53;;
10461;SDS011;5278;42.656;23.374;2022-07-22T10:25:32;5.85;;;4.78;;
10461;SDS011;5278;42.656;23.374;2022-07-22T10:28:20;6.45;;;4.00;;
10461;SDS011;5278;42.656;23.374;2022-07-22T10:30:48;4.85;;;4.30;;
10461;SDS011;5278;42.656;23.374;2022-07-22T10:33:16;9.02;;;4.13;;
10461;SDS011;5278;42.656;23.374;2022-07-22T10:35:54;6.85;;;3.95;;
10461;SDS011;5278;42.656;23.374;2022-07-22T10:38:22;4.90;;;4.45;;
10461;SDS011;5278;42.656;23.374;2022-07-22T10:40:52;6.43;;;4.82;;
10461;SDS011;5278;42.656;23.374;2022-07-22T10:43:22;5.50;;;5.03;;
10461;SDS011;5278;42.656;23.374;2022-07-22T10:45:51;11.73;;;4.60;;
10461;SDS011;5278;42.656;23.374;2022-07-22T10:48:22;4.53;;;4.10;;
10461;SDS011;5278;42.656;23.374;2022-07-22T10:50:55;5.43;;;4.88;;
10461;SDS011;5278;42.656;23.374;2022-07-22T10:53:39;4.70;;;4.30;;
10461;SDS011;5278;42.656;23.374;2022-07-22T10:56:19;7.05;;;5.10;;
10461;SDS011;5278;42.656;23.374;2022-07-22T10:58:55;5.70;;;4.45;;
10461;SDS011;5278;42.656;23.374;2022-07-22T11:01:27;9.85;;;6.13;;
10461;SDS011;5278;42.656;23.374;2022-07-22T11:04:07;6.90;;;4.53;;
10461;SDS011;5278;42.656;23.374;2022-07-22T11:06:36;6.50;;;4.97;;
10461;SDS011;5278;42.656;23.374;2022-07-22T11:09:04;4.57;;;4.18;;
10461;SDS011;5278;42.656;23.374;2022-07-22T11:11:34;6.90;;;4.53;;
10461;SDS011;5278;42.656;23.374;2022-07-22T11:14:12;6.22;;;4.55;;
10461;SDS011;5278;42.656;23.374;2022-07-22T11:16:40;7.10;;;4.40;;
10461;SDS011;5278;42.656;23.374;2022-07-22T11:19:08;5.40;;;4.50;;
10461;SDS011;5278;42.656;23.374;2022-07-22T11:21:35;13.07;;;5.55;;
10461;SDS011;5278;42.656;23.374;2022-07-22T11:24:03;5.03;;;4.53;;
10461;SDS011;5278;42.656;23.374;2022-07-22T11:26:33;8.43;;;4.88;;
10461;SDS011;5278;42.656;23.374;2022-07-22T11:29:05;6.88;;;4.68;;
10461;SDS011;5278;42.656;23.374;2022-07-22T11:31:32;5.20;;;4.68;;
10461;SDS011;5278;42.656;23.374;2022-07-22T11:34:06;5.38;;;4.60;;
10461;SDS011;5278;42.656;23.374;2022-07-22T11:36:36;5.68;;;5.18;;
10461;SDS011;5278;42.656;23.374;2022-07-22T11:39:05;7.15;;;5.03;;
10461;SDS011;5278;42.656;23.374;2022-07-22T11:41:33;7.88;;;6.25;;
10461;SDS011;5278;42.656;23.374;2022-07-22T11:44:02;7.70;;;5.15;;
10461;SDS011;5278;42.656;23.374;2022-07-22T11:46:34;4.78;;;4.28;;
10461;SDS011;5278;42.656;23.374;2022-07-22T11:49:03;11.57;;;6.70;;
10461;SDS011;5278;42.656;23.374;2022-07-22T11:51:31;7.25;;;5.07;;
10461;SDS011;5278;42.656;23.374;2022-07-22T11:53:59;6.43;;;4.68;;
10461;SDS011;5278;42.656;23.374;2022-07-22T11:56:26;8.70;;;6.03;;
10461;SDS011;5278;42.656;23.374;2022-07-22T11:58:56;9.30;;;5.28;;
10461;SDS011;5278;42.656;23.374;2022-07-22T12:01:25;7.30;;;5.72;;
10461;SDS011;5278;42.656;23.374;2022-07-22T12:03:55;9.23;;;5.00;;
10461;SDS011;5278;42.656;23.374;2022-07-22T12:06:25;7.75;;;5.20;;
10461;SDS011;5278;42.656;23.374;2022-07-22T12:08:53;8.70;;;3.90;;
10461;SDS011;5278;42.656;23.374;2022-07-22T12:11:22;8.57;;;4.95;;
10461;SDS011;5278;42.656;23.374;2022-07-22T12:13:51;14.23;;;8.95;;
10461;SDS011;5278;42.656;23.374;2022-07-22T12:16:19;9.15;;;7.55;;
10461;SDS011;5278;42.656;23.374;2022-07-22T12:18:53;7.60;;;6.07;;
10461;SDS011;5278;42.656;23.374;2022-07-22T12:21:21;7.07;;;4.45;;
10461;SDS011;5278;42.656;23.374;2022-07-22T12:23:50;7.82;;;5.72;;
10461;SDS011;5278;42.656;23.374;2022-07-22T12:29:12;6.50;;;5.85;;
10461;SDS011;5278;42.656;23.374;2022-07-22T12:31:41;5.68;;;4.22;;
10461;SDS011;5278;42.656;23.374;2022-07-22T12:34:11;5.07;;;4.55;;
10461;SDS011;5278;42.656;23.374;2022-07-22T12:36:38;9.35;;;4.30;;
10461;SDS011;5278;42.656;23.374;2022-07-22T12:39:15;5.00;;;4.05;;
10461;SDS011;5278;42.656;23.374;2022-07-22T12:41:47;7.53;;;4.40;;
10461;SDS011;5278;42.656;23.374;2022-07-22T12:44:17;4.25;;;3.85;;
10461;SDS011;5278;42.656;23.374;2022-07-22T12:46:47;5.65;;;4.00;;
10461;SDS011;5278;42.656;23.374;2022-07-22T12:49:16;9.75;;;4.40;;
10461;SDS011;5278;42.656;23.374;2022-07-22T12:54:34;4.15;;;3.75;;
10461;SDS011;5278;42.656;23.374;2022-07-22T12:57:01;4.93;;;3.67;;
10461;SDS011;5278;42.656;23.374;2022-07-22T12:59:28;6.25;;;4.25;;
10461;SDS011;5278;42.656;23.374;2022-07-22T13:01:55;5.13;;;4.60;;
10461;SDS011;5278;42.656;23.374;2022-07-22T13:04:24;6.15;;;4.65;;
10461;SDS011;5278;42.656;23.374;2022-07-22T13:06:51;6.05;;;3.67;;
10461;SDS011;5278;42.656;23.374;2022-07-22T13:09:18;6.30;;;5.70;;
10461;SDS011;5278;42.656;23.374;2022-07-22T13:11:45;5.85;;;4.32;;
10461;SDS011;5278;42.656;23.374;2022-07-22T13:14:12;8.60;;;4.53;;
10461;SDS011;5278;42.656;23.374;2022-07-22T13:16:40;14.50;;;7.95;;
10461;SDS011;5278;42.656;23.374;2022-07-22T13:19:07;9.43;;;5.97;;
10461;SDS011;5278;42.656;23.374;2022-07-22T13:21:37;8.40;;;4.75;;
10461;SDS011;5278;42.656;23.374;2022-07-22T13:24:04;7.95;;;4.45;;
10461;SDS011;5278;42.656;23.374;2022-07-22T13:26:31;4.80;;;4.28;;
10461;SDS011;5278;42.656;23.374;2022-07-22T13:28:58;5.40;;;4.35;;
10461;SDS011;5278;42.656;23.374;2022-07-22T13:31:25;6.85;;;4.80;;
10461;SDS011;5278;42.656;23.374;2022-07-22T13:33:52;5.97;;;3.50;;
10461;SDS011;5278;42.656;23.374;2022-07-22T13:36:19;5.72;;;3.85;;
10461;SDS011;5278;42.656;23.374;2022-07-22T13:38:50;4.82;;;3.40;;
10461;SDS011;5278;42.656;23.374;2022-07-22T13:41:17;5.28;;;3.70;;
10461;SDS011;5278;42.656;23.374;2022-07-22T13:43:44;6.40;;;3.83;;
10461;SDS011;5278;42.656;23.374;2022-07-22T13:46:14;7.82;;;3.78;;
10461;SDS011;5278;42.656;23.374;2022-07-22T13:48:41;4.50;;;4.00;;
10461;SDS011;5278;42.656;23.374;2022-07-22T13:51:08;5.20;;;4.25;;
10461;SDS011;5278;42.656;23.374;2022-07-22T13:53:36;5.13;;;3.58;;
10461;SDS011;5278;42.656;23.374;2022-07-22T13:56:06;5.70;;;4.13;;
10461;SDS011;5278;42.656;23.374;2022-07-22T13:58:34;3.80;;;3.42;;
10461;SDS011;5278;42.656;23.374;2022-07-22T14:01:02;8.25;;;6.13;;
10461;SDS011;5278;42.656;23.374;2022-07-22T14:03:28;6.80;;;3.83;;
10461;SDS011;5278;42.656;23.374;2022-07-22T14:05:55;4.40;;;4.00;;
10461;SDS011;5278;42.656;23.374;2022-07-22T14:08:23;4.95;;;4.53;;
10461;SDS011;5278;42.656;23.374;2022-07-22T14:10:51;5.47;;;3.53;;
10461;SDS011;5278;42.656;23.374;2022-07-22T14:13:19;5.72;;;4.28;;
10461;SDS011;5278;42.656;23.374;2022-07-22T14:15:46;5.18;;;3.75;;
10461;SDS011;5278;42.656;23.374;2022-07-22T14:18:13;5.13;;;4.20;;
10461;SDS011;5278;42.656;23.374;2022-07-22T14:20:40;5.60;;;4.25;;
10461;SDS011;5278;42.656;23.374;2022-07-22T14:23:07;5.30;;;3.95;;
10461;SDS011;5278;42.656;23.374;2022-07-22T14:25:35;4.65;;;3.75;;
10461;SDS011;5278;42.656;23.374;2022-07-22T14:28:03;7.68;;;4.00;;
10461;SDS011;5278;42.656;23.374;2022-07-22T14:30:32;7.63;;;3.65;;
10461;SDS011;5278;42.656;23.374;2022-07-22T14:33:00;5.13;;;3.10;;
10461;SDS011;5278;42.656;23.374;2022-07-22T14:35:27;4.85;;;3.65;;
10461;SDS011;5278;42.656;23.374;2022-07-22T14:37:54;4.60;;;4.10;;
10461;SDS011;5278;42.656;23.374;2022-07-22T14:40:21;5.40;;;4.20;;
10461;SDS011;5278;42.656;23.374;2022-07-22T14:42:48;6.78;;;3.88;;
10461;SDS011;5278;42.656;23.374;2022-07-22T14:45:15;5.75;;;3.33;;
10461;SDS011;5278;42.656;23.374;2022-07-22T14:47:43;4.60;;;3.63;;
10461;SDS011;5278;42.656;23.374;2022-07-22T14:50:10;6.80;;;3.67;;
10461;SDS011;5278;42.656;23.374;2022-07-22T14:52:37;6.90;;;4.00;;
10461;SDS011;5278;42.656;23.374;2022-07-22T14:55:04;6.70;;;3.78;;